createdAt,value
2022-09-14T00:01:29.674Z,96366.72
2022-09-14T00:04:00.498Z,96370.69
2022-09-14T00:06:30.480Z,96367.13
2022-09-14T00:09:00.723Z,96364.28
2022-09-14T00:11:30.522Z,96365.63
2022-09-14T00:13:59.315Z,96357.88
2022-09-14T00:16:29.802Z,96354.53
2022-09-14T00:19:00.283Z,96352.72
2022-09-14T00:21:29.627Z,96338.59
2022-09-14T00:23:57.372Z,96336.84
2022-09-14T00:26:25.781Z,96328.38
2022-09-14T00:29:04.241Z,96327.84
2022-09-14T00:31:33.820Z,96323.19
2022-09-14T00:34:02.234Z,96321.53
2022-09-14T00:36:33.802Z,96323.13
2022-09-14T00:39:01.723Z,96321.34
2022-09-14T00:41:32.862Z,96318.00
2022-09-14T00:44:03.168Z,96325.31
2022-09-14T00:46:33.009Z,96319.09
2022-09-14T00:49:02.987Z,96322.22
2022-09-14T00:51:34.733Z,96315.28
2022-09-14T00:54:03.110Z,96309.44
2022-09-14T00:56:31.621Z,96308.09
2022-09-14T00:59:02.775Z,96311.09
2022-09-14T01:01:30.666Z,96306.44
2022-09-14T01:03:58.438Z,96305.34
2022-09-14T01:06:36.906Z,96302.94
2022-09-14T01:09:14.102Z,96307.00
2022-09-14T01:11:56.410Z,96305.59
2022-09-14T01:14:32.974Z,96294.59
2022-09-14T01:17:08.183Z,96292.16
2022-09-14T01:20:11.064Z,96291.81
2022-09-14T01:22:47.599Z,96284.91
2022-09-14T01:25:37.553Z,96278.00
2022-09-14T01:28:11.276Z,96283.47
2022-09-14T01:30:42.410Z,96288.13
2022-09-14T01:33:16.037Z,96286.28
2022-09-14T01:35:50.214Z,96286.53
2022-09-14T01:38:22.363Z,96299.78
2022-09-14T01:40:52.386Z,96288.13
2022-09-14T01:43:25.923Z,96294.38
2022-09-14T01:45:58.643Z,96297.81
2022-09-14T01:48:35.561Z,96289.69
2022-09-14T01:51:09.374Z,96273.72
2022-09-14T01:53:41.095Z,96282.69
2022-09-14T01:56:15.802Z,96282.44
2022-09-14T01:58:49.027Z,96270.28
2022-09-14T02:01:25.846Z,96271.59
2022-09-14T02:03:59.187Z,96275.97
2022-09-14T02:06:36.284Z,96274.38
2022-09-14T02:09:06.276Z,96271.03
2022-09-14T02:11:34.009Z,96268.28
2022-09-14T02:14:03.321Z,96265.91
2022-09-14T02:16:31.477Z,96262.53
2022-09-14T02:19:01.600Z,96267.63
2022-09-14T02:21:31.844Z,96258.53
2022-09-14T02:24:01.199Z,96250.97
2022-09-14T02:26:30.169Z,96242.94
2022-09-14T02:28:58.492Z,96247.69
2022-09-14T02:31:38.686Z,96251.50
2022-09-14T02:34:12.893Z,96255.44
2022-09-14T02:36:49.541Z,96247.81
2022-09-14T02:39:28.063Z,96238.19
2022-09-14T02:42:05.775Z,96237.19
2022-09-14T02:44:42.455Z,96232.81
2022-09-14T02:47:18.103Z,96230.28
2022-09-14T02:49:53.207Z,96236.72
2022-09-14T02:52:28.409Z,96235.28
2022-09-14T02:55:01.656Z,96230.69
2022-09-14T02:57:29.366Z,96233.56
2022-09-14T02:59:57.065Z,96222.56
2022-09-14T03:02:26.281Z,96226.47
2022-09-14T03:04:54.048Z,96227.38
2022-09-14T03:07:21.902Z,96231.53
2022-09-14T03:09:49.719Z,96228.69
2022-09-14T03:12:18.277Z,96225.19
2022-09-14T03:14:45.990Z,96226.63
2022-09-14T03:17:13.750Z,96224.47
2022-09-14T03:19:42.801Z,96236.81
2022-09-14T03:22:10.556Z,96237.41
2022-09-14T03:24:38.279Z,96229.78
2022-09-14T03:27:06.055Z,96240.50
2022-09-14T03:29:33.799Z,96235.03
2022-09-14T03:32:03.075Z,96237.19
2022-09-14T03:34:30.965Z,96238.25
2022-09-14T03:36:59.965Z,96242.91
2022-09-14T03:39:28.809Z,96248.97
2022-09-14T03:41:56.509Z,96247.44
2022-09-14T03:44:24.317Z,96245.06
2022-09-14T03:46:52.052Z,96238.38
2022-09-14T03:49:19.828Z,96232.91
2022-09-14T03:51:47.561Z,96227.75
2022-09-14T03:54:16.703Z,96227.66
2022-09-14T03:56:44.416Z,96233.34
2022-09-14T03:59:12.440Z,96239.94
2022-09-14T04:01:40.521Z,96241.63
2022-09-14T04:04:08.289Z,96235.16
2022-09-14T04:06:36.000Z,96231.44
2022-09-14T04:09:03.789Z,96236.59
2022-09-14T04:11:34.773Z,96231.22
2022-09-14T04:14:03.891Z,96235.19
2022-09-14T04:16:32.370Z,96229.28
2022-09-14T04:19:00.203Z,96225.97
2022-09-14T04:21:28.037Z,96233.34
2022-09-14T04:24:13.872Z,96226.78
2022-09-14T04:26:44.641Z,96215.66
2022-09-14T04:29:14.572Z,96220.91
2022-09-14T04:31:42.662Z,96209.47
2022-09-14T04:34:12.359Z,96214.00
2022-09-14T04:36:40.342Z,96205.50
2022-09-14T04:39:09.181Z,96223.44
2022-09-14T04:41:36.897Z,96209.22
2022-09-14T04:44:05.979Z,96215.06
2022-09-14T04:46:35.906Z,96218.06
2022-09-14T04:49:04.311Z,96214.97
2022-09-14T04:51:33.191Z,96212.47
2022-09-14T04:54:02.771Z,96207.31
2022-09-14T04:56:33.385Z,96208.59
2022-09-14T04:59:04.194Z,96209.19
2022-09-14T05:01:34.936Z,96204.66
2022-09-14T05:04:03.439Z,96202.50
2022-09-14T05:06:33.398Z,96200.78
2022-09-14T05:09:02.660Z,96197.91
2022-09-14T05:11:33.283Z,96193.06
2022-09-14T05:14:02.206Z,96202.00
2022-09-14T05:16:31.603Z,96189.31
2022-09-14T05:19:02.292Z,96183.78
2022-09-14T05:21:31.276Z,96182.13
2022-09-14T05:24:00.765Z,96185.22
2022-09-14T05:26:29.794Z,96182.44
2022-09-14T05:28:59.314Z,96178.63
2022-09-14T05:31:28.850Z,96178.75
2022-09-14T05:33:56.813Z,96182.09
2022-09-14T05:36:26.431Z,96183.97
2022-09-14T05:38:54.263Z,96185.50
2022-09-14T05:41:22.003Z,96180.81
2022-09-14T05:43:49.760Z,96190.63
2022-09-14T05:46:20.258Z,96182.69
2022-09-14T05:48:51.314Z,96181.84
2022-09-14T05:51:21.252Z,96176.31
2022-09-14T05:53:51.448Z,96181.00
2022-09-14T05:56:20.814Z,96176.25
2022-09-14T05:58:49.360Z,96180.13
2022-09-14T06:01:19.192Z,96179.34
2022-09-14T06:03:48.552Z,96180.06
2022-09-14T06:06:18.823Z,96173.81
2022-09-14T06:08:50.162Z,96175.69
2022-09-14T06:11:21.652Z,96180.84
2022-09-14T06:13:49.913Z,96181.78
2022-09-14T06:16:20.105Z,96175.66
2022-09-14T06:18:49.407Z,96174.56
2022-09-14T06:21:19.876Z,96172.97
2022-09-14T06:23:48.972Z,96178.94
2022-09-14T06:26:18.884Z,96176.53
2022-09-14T06:28:46.664Z,96172.06
2022-09-14T06:31:15.658Z,96163.44
2022-09-14T06:33:47.812Z,96171.84
2022-09-14T06:36:19.571Z,96168.22
2022-09-14T06:38:48.933Z,96170.41
2022-09-14T06:41:20.389Z,96168.81
2022-09-14T06:43:49.068Z,96166.75
2022-09-14T06:46:19.861Z,96172.84
2022-09-14T06:48:49.679Z,96165.50
2022-09-14T06:51:19.520Z,96170.81
2022-09-14T06:53:48.506Z,96172.47
2022-09-14T06:56:16.965Z,96175.16
2022-09-14T06:58:46.381Z,96176.25
2022-09-14T07:01:15.874Z,96173.56
2022-09-14T07:03:45.014Z,96172.09
2022-09-14T07:06:15.043Z,96166.41
2022-09-14T07:08:42.813Z,96171.25
2022-09-14T07:11:12.920Z,96163.09
2022-09-14T07:13:41.169Z,96167.41
2022-09-14T07:16:10.659Z,96165.03
2022-09-14T07:18:38.830Z,96170.97
2022-09-14T07:21:08.477Z,96160.72
2022-09-14T07:23:38.187Z,96164.91
2022-09-14T07:26:08.297Z,96160.91
2022-09-14T07:28:37.801Z,96160.41
2022-09-14T07:31:07.146Z,96162.19
2022-09-14T07:33:36.292Z,96161.50
2022-09-14T07:36:07.475Z,96159.38
2022-09-14T07:38:51.788Z,96166.84
2022-09-14T07:41:21.179Z,96160.00
2022-09-14T07:43:50.220Z,96161.63
2022-09-14T07:46:18.169Z,96165.22
2022-09-14T07:48:48.021Z,96161.38
2022-09-14T07:51:16.633Z,96163.41
2022-09-14T07:53:45.544Z,96157.38
2022-09-14T07:56:16.741Z,96161.31
2022-09-14T07:58:44.993Z,96157.06
2022-09-14T08:01:15.046Z,96149.03
2022-09-14T08:03:44.453Z,96143.47
2022-09-14T08:06:16.123Z,96144.28
2022-09-14T08:08:45.693Z,96141.84
2022-09-14T08:11:15.654Z,96136.16
2022-09-14T08:13:45.919Z,96134.84
2022-09-14T08:16:14.496Z,96137.69
2022-09-14T08:18:42.628Z,96143.94
2022-09-14T08:21:14.506Z,96141.00
2022-09-14T08:23:43.074Z,96146.25
2022-09-14T08:26:13.549Z,96141.28
2022-09-14T08:28:41.986Z,96143.63
2022-09-14T08:31:11.810Z,96144.16
2022-09-14T08:33:41.089Z,96138.09
2022-09-14T08:36:10.290Z,96146.16
2022-09-14T08:38:39.830Z,96140.63
2022-09-14T08:41:13.158Z,96141.63
2022-09-14T08:43:41.057Z,96142.09
2022-09-14T08:46:15.671Z,96143.63
2022-09-14T08:48:49.177Z,96130.34
2022-09-14T08:51:18.227Z,96135.75
2022-09-14T08:53:47.462Z,96132.56
2022-09-14T08:56:18.744Z,96124.53
2022-09-14T08:58:59.431Z,96123.69
2022-09-14T09:01:40.735Z,96124.25
2022-09-14T09:04:24.246Z,96122.31
2022-09-14T09:06:59.017Z,96129.66
2022-09-14T09:09:34.612Z,96123.84
2022-09-14T09:12:03.173Z,96119.09
2022-09-14T09:14:35.070Z,96119.22
2022-09-14T09:17:06.045Z,96119.75
2022-09-14T09:19:39.380Z,96117.81
2022-09-14T09:22:15.026Z,96124.81
2022-09-14T09:24:48.795Z,96122.16
2022-09-14T09:27:17.897Z,96111.88
2022-09-14T09:29:46.028Z,96119.94
2022-09-14T09:32:18.053Z,96122.53
2022-09-14T09:34:52.098Z,96117.34
2022-09-14T09:37:39.960Z,96120.22
2022-09-14T09:40:16.447Z,96120.75
2022-09-14T09:43:12.809Z,96125.00
2022-09-14T09:45:54.580Z,96126.53
2022-09-14T09:48:25.922Z,96125.88
2022-09-14T09:51:02.178Z,96124.19
2022-09-14T09:53:30.230Z,96121.47
2022-09-14T09:55:59.419Z,96123.16
2022-09-14T09:58:31.565Z,96121.06
2022-09-14T10:01:01.618Z,96123.44
2022-09-14T10:03:32.728Z,96110.28
2022-09-14T10:06:03.134Z,96115.28
2022-09-14T10:08:35.065Z,96115.38
2022-09-14T10:11:04.893Z,96109.03
2022-09-14T10:13:38.684Z,96101.16
2022-09-14T10:16:16.909Z,96106.75
2022-09-14T10:18:49.139Z,96090.31
2022-09-14T10:21:18.765Z,96093.53
2022-09-14T10:23:46.879Z,96095.28
2022-09-14T10:26:35.253Z,96091.13
2022-09-14T10:29:30.607Z,96095.03
2022-09-14T10:32:05.089Z,96094.50
2022-09-14T10:34:33.572Z,96087.56
2022-09-14T10:37:14.712Z,96082.66
2022-09-14T10:39:49.651Z,96086.00
2022-09-14T10:42:30.059Z,96094.41
2022-09-14T10:45:14.620Z,96093.94
2022-09-14T10:48:00.351Z,96092.63
2022-09-14T10:50:41.071Z,96095.50
2022-09-14T10:53:23.601Z,96095.38
2022-09-14T10:56:01.778Z,96095.91
2022-09-14T10:58:57.926Z,96099.88
2022-09-14T11:01:37.710Z,96111.22
2022-09-14T11:04:19.549Z,96114.38
2022-09-14T11:06:55.306Z,96101.13
2022-09-14T11:09:26.786Z,96112.25
2022-09-14T11:12:06.813Z,96112.78
2022-09-14T11:15:04.543Z,96111.53
2022-09-14T11:18:06.779Z,96116.69
2022-09-14T11:20:43.814Z,96113.53
2022-09-14T11:23:34.801Z,96109.75
2022-09-14T11:26:08.867Z,96099.81
2022-09-14T11:28:42.259Z,96098.50
2022-09-14T11:31:21.897Z,96091.16
2022-09-14T11:33:57.002Z,96087.94
2022-09-14T11:36:27.279Z,96086.56
2022-09-14T11:39:04.685Z,96074.72
2022-09-14T11:41:40.314Z,96069.50
2022-09-14T11:44:14.344Z,96056.22
2022-09-14T11:46:47.801Z,96066.22
2022-09-14T11:49:20.719Z,96064.03
2022-09-14T11:51:53.052Z,96063.88
2022-09-14T11:54:23.068Z,96076.41
2022-09-14T11:56:55.785Z,96075.41
2022-09-14T11:59:50.674Z,96061.38
2022-09-14T12:02:51.899Z,96071.91
2022-09-14T12:05:33.315Z,96060.03
2022-09-14T12:08:04.341Z,96060.94
2022-09-14T12:10:32.666Z,96051.59
2022-09-14T12:13:21.071Z,96059.53
2022-09-14T12:15:49.050Z,96069.09
2022-09-14T12:18:28.179Z,96070.94
2022-09-14T12:21:09.225Z,96069.09
2022-09-14T12:23:46.172Z,96068.91
2022-09-14T12:26:29.444Z,96070.06
2022-09-14T12:29:02.295Z,96057.53
2022-09-14T12:31:36.063Z,96058.06
2022-09-14T12:34:25.636Z,96061.59
2022-09-14T12:37:19.970Z,96058.09
2022-09-14T12:40:14.333Z,96054.13
2022-09-14T12:42:42.080Z,96045.25
2022-09-14T12:45:47.182Z,96047.72
2022-09-14T12:48:55.853Z,96041.09
2022-09-14T12:51:35.367Z,96050.28
2022-09-14T12:54:18.092Z,96048.69
2022-09-14T12:56:59.894Z,96047.44
2022-09-14T12:59:34.644Z,96048.50
2022-09-14T13:02:28.396Z,96037.78
2022-09-14T13:04:59.780Z,96037.75
2022-09-14T13:07:33.046Z,96033.97
2022-09-14T13:10:04.702Z,96029.22
2022-09-14T13:12:38.172Z,96026.50
2022-09-14T13:15:09.064Z,96023.41
2022-09-14T13:17:36.909Z,96018.44
2022-09-14T13:20:17.978Z,96006.44
2022-09-14T13:22:45.704Z,96003.28
2022-09-14T13:25:28.225Z,95993.28
2022-09-14T13:27:57.393Z,95992.06
2022-09-14T13:30:27.137Z,95989.84
2022-09-14T13:32:58.196Z,95994.09
2022-09-14T13:35:31.516Z,95994.00
2022-09-14T13:38:01.345Z,95998.44
2022-09-14T13:40:31.298Z,96000.41
2022-09-14T13:43:00.663Z,96000.72
2022-09-14T13:45:28.727Z,96000.06
2022-09-14T13:47:57.040Z,95993.34
2022-09-14T13:50:25.625Z,95996.22
2022-09-14T13:53:03.537Z,95993.41
2022-09-14T13:55:45.137Z,95998.78
2022-09-14T13:58:22.335Z,95992.03
2022-09-14T14:00:59.126Z,95999.44
2022-09-14T14:03:31.909Z,95998.72
2022-09-14T14:06:00.958Z,95995.25
2022-09-14T14:08:35.180Z,95990.00
2022-09-14T14:11:07.887Z,95990.66
2022-09-14T14:13:37.539Z,95982.72
2022-09-14T14:16:19.070Z,95986.16
2022-09-14T14:18:54.990Z,95980.81
2022-09-14T14:21:31.744Z,95978.09
2022-09-14T14:24:27.832Z,95979.78
2022-09-14T14:26:58.797Z,95982.47
2022-09-14T14:29:26.881Z,95979.31
2022-09-14T14:31:56.914Z,95980.00
2022-09-14T14:34:27.235Z,95976.13
2022-09-14T14:36:55.549Z,95969.47
2022-09-14T14:39:26.487Z,95974.25
2022-09-14T14:41:54.993Z,95975.78
2022-09-14T14:44:28.197Z,95978.63
2022-09-14T14:46:56.325Z,95970.53
2022-09-14T14:49:24.225Z,95971.97
2022-09-14T14:51:52.205Z,95958.19
2022-09-14T14:54:20.236Z,95956.56
2022-09-14T14:56:49.455Z,95951.13
2022-09-14T14:59:29.429Z,95947.13
2022-09-14T15:01:58.090Z,95951.31
2022-09-14T15:04:26.411Z,95950.25
2022-09-14T15:06:54.331Z,95956.81
2022-09-14T15:09:23.994Z,95955.94
2022-09-14T15:11:53.499Z,95951.81
2022-09-14T15:14:26.714Z,95946.25
2022-09-14T15:17:00.086Z,95944.88
2022-09-14T15:19:28.706Z,95940.97
2022-09-14T15:22:00.997Z,95942.91
2022-09-14T15:24:30.380Z,95941.84
2022-09-14T15:26:59.506Z,95941.53
2022-09-14T15:29:27.283Z,95944.59
2022-09-14T15:31:56.743Z,95945.28
2022-09-14T15:34:24.795Z,95953.75
2022-09-14T15:36:54.505Z,95949.44
2022-09-14T15:39:27.552Z,95956.78
2022-09-14T15:41:55.824Z,95950.66
2022-09-14T15:44:24.031Z,95956.47
2022-09-14T15:46:52.751Z,95957.06
2022-09-14T15:49:23.766Z,95948.72
2022-09-14T15:51:54.045Z,95955.72
2022-09-14T15:54:23.961Z,95948.91
2022-09-14T15:56:54.952Z,95950.72
2022-09-14T15:59:23.539Z,95953.88
2022-09-14T16:01:52.045Z,95955.97
2022-09-14T16:04:20.279Z,95954.16
2022-09-14T16:06:49.734Z,95954.00
2022-09-14T16:09:20.426Z,95957.63
2022-09-14T16:11:48.577Z,95949.31
2022-09-14T16:14:16.362Z,95940.97
2022-09-14T16:16:44.326Z,95940.47
2022-09-14T16:19:14.357Z,95945.69
2022-09-14T16:21:43.397Z,95942.22
2022-09-14T16:24:15.272Z,95945.19
2022-09-14T16:26:43.979Z,95938.50
2022-09-14T16:29:13.530Z,95935.31
2022-09-14T16:31:43.347Z,95932.22
2022-09-14T16:34:13.783Z,95926.13
2022-09-14T16:36:42.441Z,95933.44
2022-09-14T16:39:14.054Z,95926.38
2022-09-14T16:41:42.285Z,95931.94
2022-09-14T16:44:13.941Z,95931.78
2022-09-14T16:46:42.074Z,95919.69
2022-09-14T16:49:10.177Z,95917.88
2022-09-14T16:51:38.527Z,95908.16
2022-09-14T16:54:06.968Z,95911.78
2022-09-14T16:56:38.278Z,95906.00
2022-09-14T16:59:07.457Z,95902.94
2022-09-14T17:01:37.426Z,95899.34
2022-09-14T17:04:09.550Z,95902.13
2022-09-14T17:06:39.304Z,95896.69
2022-09-14T17:09:09.328Z,95890.53
2022-09-14T17:11:40.343Z,95896.94
2022-09-14T17:14:09.010Z,95886.84
2022-09-14T17:16:37.117Z,95885.19
2022-09-14T17:19:05.815Z,95893.13
2022-09-14T17:21:36.373Z,95884.50
2022-09-14T17:24:05.383Z,95881.59
2022-09-14T17:26:33.738Z,95881.59
2022-09-14T17:29:04.489Z,95884.09
2022-09-14T17:31:35.495Z,95873.28
2022-09-14T17:34:05.983Z,95873.28
2022-09-14T17:36:34.321Z,95864.66
2022-09-14T17:39:07.882Z,95861.47
2022-09-14T17:41:39.116Z,95868.28
2022-09-14T17:44:10.839Z,95868.44
2022-09-14T17:46:48.274Z,95880.66
2022-09-14T17:49:19.018Z,95871.50
2022-09-14T17:51:46.808Z,95866.38
2022-09-14T17:54:14.508Z,95859.72
2022-09-14T17:56:42.530Z,95856.66
2022-09-14T17:59:13.971Z,95856.38
2022-09-14T18:01:42.002Z,95863.16
2022-09-14T18:04:11.996Z,95855.50
2022-09-14T18:06:42.009Z,95855.81
2022-09-14T18:09:13.258Z,95858.56
2022-09-14T18:11:41.369Z,95854.41
2022-09-14T18:14:12.630Z,95838.88
2022-09-14T18:16:43.045Z,95838.84
2022-09-14T18:19:11.484Z,95840.66
2022-09-14T18:21:39.396Z,95841.09
2022-09-14T18:24:07.607Z,95844.56
2022-09-14T18:26:35.436Z,95834.69
2022-09-14T18:29:03.743Z,95842.75
2022-09-14T18:31:31.955Z,95840.56
2022-09-14T18:34:02.322Z,95836.94
2022-09-14T18:36:31.059Z,95833.47
2022-09-14T18:38:59.525Z,95826.66
2022-09-14T18:41:29.127Z,95831.38
2022-09-14T18:43:56.845Z,95833.03
2022-09-14T18:46:28.138Z,95833.91
2022-09-14T18:48:58.144Z,95834.03
2022-09-14T18:51:28.256Z,95832.47
2022-09-14T18:54:01.110Z,95826.38
2022-09-14T18:56:29.732Z,95830.41
2022-09-14T18:58:57.558Z,95834.00
2022-09-14T19:01:26.062Z,95840.97
2022-09-14T19:03:55.907Z,95846.78
2022-09-14T19:06:24.058Z,95837.78
2022-09-14T19:08:53.233Z,95833.50
2022-09-14T19:11:22.662Z,95838.63
2022-09-14T19:13:55.548Z,95840.53
2022-09-14T19:16:23.351Z,95839.28
2022-09-14T19:18:51.215Z,95832.47
2022-09-14T19:21:23.445Z,95826.00
2022-09-14T19:24:00.469Z,95821.72
2022-09-14T19:26:30.526Z,95821.97
2022-09-14T19:29:00.538Z,95822.38
2022-09-14T19:31:30.510Z,95829.59
2022-09-14T19:33:59.061Z,95822.94
2022-09-14T19:36:27.626Z,95816.41
2022-09-14T19:39:02.227Z,95816.44
2022-09-14T19:41:31.319Z,95801.38
2022-09-14T19:43:59.413Z,95800.94
2022-09-14T19:46:29.023Z,95802.75
2022-09-14T19:48:56.891Z,95803.41
2022-09-14T19:51:26.682Z,95806.03
2022-09-14T19:53:57.362Z,95798.53
2022-09-14T19:56:27.243Z,95792.16
2022-09-14T19:58:57.145Z,95791.19
2022-09-14T20:01:26.521Z,95789.47
2022-09-14T20:03:54.970Z,95778.13
2022-09-14T20:06:25.520Z,95781.34
2022-09-14T20:08:57.241Z,95781.00
2022-09-14T20:11:28.136Z,95791.97
2022-09-14T20:13:57.204Z,95797.53
2022-09-14T20:16:27.984Z,95800.84
2022-09-14T20:18:57.231Z,95794.63
2022-09-14T20:21:26.331Z,95797.94
2022-09-14T20:24:14.584Z,95813.66
2022-09-14T20:26:45.460Z,95805.75
2022-09-14T20:29:13.310Z,95800.84
2022-09-14T20:31:41.379Z,95799.06
2022-09-14T20:34:13.447Z,95797.13
2022-09-14T20:36:50.675Z,95793.38
2022-09-14T20:39:55.219Z,95790.16
2022-09-14T20:42:18.445Z,95791.56
2022-09-14T20:44:46.729Z,95790.56
2022-09-14T20:47:15.904Z,95783.91
2022-09-14T20:49:43.670Z,95782.81
2022-09-14T20:52:16.634Z,95782.53
2022-09-14T20:54:52.634Z,95785.56
2022-09-14T20:57:24.547Z,95778.78
2022-09-14T20:59:52.467Z,95788.91
2022-09-14T21:02:20.363Z,95778.38
2022-09-14T21:04:48.349Z,95764.66
2022-09-14T21:07:16.451Z,95765.38
2022-09-14T21:09:46.757Z,95767.44
2022-09-14T21:12:15.234Z,95773.97
2022-09-14T21:14:45.109Z,95780.94
2022-09-14T21:17:12.989Z,95770.97
2022-09-14T21:19:40.809Z,95764.88
2022-09-14T21:22:08.528Z,95765.94
2022-09-14T21:24:36.305Z,95763.06
2022-09-14T21:27:04.789Z,95785.13
2022-09-14T21:29:32.653Z,95777.09
2022-09-14T21:32:06.809Z,95743.63
2022-09-14T21:34:36.674Z,95788.66
2022-09-14T21:37:12.900Z,95784.44
2022-09-14T21:42:47.924Z,95753.34
2022-09-14T21:45:16.363Z,95751.28
2022-09-14T21:47:51.452Z,95755.72
2022-09-14T21:50:19.287Z,95754.66
2022-09-14T21:52:51.367Z,95748.84
2022-09-14T21:55:21.451Z,95760.75
2022-09-14T21:57:52.164Z,95757.28
2022-09-14T22:00:20.134Z,95752.00
2022-09-14T22:02:47.986Z,95753.53
2022-09-14T22:05:17.262Z,95745.88
2022-09-14T22:07:45.128Z,95739.50
2022-09-14T22:10:12.859Z,95734.41
2022-09-14T22:12:40.587Z,95737.44
2022-09-14T22:15:10.016Z,95730.53
2022-09-14T22:17:38.640Z,95742.44
2022-09-14T22:20:07.311Z,95743.25
2022-09-14T22:22:36.481Z,95732.28
2022-09-14T22:25:05.956Z,95726.19
2022-09-14T22:27:33.846Z,95729.78
2022-09-14T22:30:01.774Z,95727.75
2022-09-14T22:32:29.859Z,95724.44
2022-09-14T22:34:57.680Z,95726.06
2022-09-14T22:37:25.458Z,95728.56
2022-09-14T22:39:54.926Z,95734.66
2022-09-14T22:42:23.865Z,95733.53
2022-09-14T22:44:51.615Z,95739.03
2022-09-14T22:47:19.351Z,95748.28
2022-09-14T22:49:47.386Z,95745.94
2022-09-14T22:52:15.162Z,95733.66
2022-09-14T22:54:42.870Z,95745.66
2022-09-14T22:57:12.009Z,95747.75
2022-09-14T22:59:39.886Z,95743.34
2022-09-14T23:02:07.746Z,95746.44
2022-09-14T23:04:35.766Z,95751.19
2022-09-14T23:07:04.283Z,95750.44
2022-09-14T23:09:32.075Z,95753.09
2022-09-14T23:12:00.011Z,95739.78
2022-09-14T23:14:29.288Z,95738.56
2022-09-14T23:16:57.090Z,95742.56
2022-09-14T23:19:24.949Z,95753.16
2022-09-14T23:21:52.723Z,95749.84
2022-09-14T23:24:20.562Z,95764.91
2022-09-14T23:26:48.548Z,95762.84
2022-09-14T23:29:17.881Z,95764.06
2022-09-14T23:31:47.125Z,95754.91
2022-09-14T23:34:15.303Z,95760.09
2022-09-14T23:36:43.052Z,95761.75
2022-09-14T23:39:10.788Z,95771.47
2022-09-14T23:41:39.206Z,95777.44
2022-09-14T23:44:07.100Z,95780.56
2022-09-14T23:46:34.839Z,95780.25
2022-09-14T23:49:04.016Z,95785.75
2022-09-14T23:51:31.784Z,95786.84
2022-09-14T23:53:59.559Z,95787.63
2022-09-14T23:56:27.350Z,95787.16
2022-09-14T23:58:55.144Z,95790.19
